TimeEDT,TemperatureF,Dew PointF,Humidity,Sea Level PressureIn,VisibilityMPH,Wind Direction,Wind SpeedMPH,Gust SpeedMPH,PrecipitationIn,Events,Conditions,WindDirDegrees,DateUTC
12:00 AM,33.8,30.2,87,29.52,6.0,NNW,17.3,23.0,N/A,Snow,Light Snow,330,2012-10-02 04:00:00
1:00 AM,33.8,30.2,87,29.53,6.0,NNW,17.3,23.0,N/A,Snow,Light Snow,330,2012-10-02 05:00:00
2:00 AM,33,30,83,,6,NW,23.0,,,Snow,Light Snow,320,2012-10-02 06:00:00
2:00 AM,32.0,30.2,93,29.53,6.0,NW,23.0,28.8,N/A,Snow,Light Snow,320,2012-10-02 06:00:00
2:29 AM,-9999,-9999,N/A,-9999,15.0,NW,15.0,-,N/A,,Mostly Cloudy,320,2012-10-02 06:29:00
3:00 AM,32.0,28.4,87,29.54,15.0,NW,17.3,-,N/A,,Mostly Cloudy,320,2012-10-02 07:00:00
5:00 AM,32.0,28.4,87,29.56,15.0,WNW,17.3,-,N/A,,Scattered Clouds,300,2012-10-02 09:00:00
6:00 AM,32.0,28.4,87,29.57,15.0,NW,17.3,-,N/A,,Mostly Cloudy,310,2012-10-02 10:00:00
7:00 AM,32.0,28.4,87,29.59,15.0,WNW,11.5,-,N/A,,Overcast,300,2012-10-02 11:00:00
8:00 AM,33,28,73,29.61,15,NNW,15.0,,,,Partly Cloudy,330,2012-10-02 12:00:00
8:00 AM,32.0,28.4,87,29.61,15.0,NNW,15.0,-,N/A,,Overcast,330,2012-10-02 12:00:00
8:12 AM,-9999,-9999,N/A,-9999,15.0,NNW,19.6,26.5,N/A,,Unknown,330,2012-10-02 12:12:00
9:00 AM,32.0,26.6,80,29.63,15.0,NNW,19.6,-,N/A,Snow,Light Snow,330,2012-10-02 13:00:00
10:00 AM,32.0,26.6,80,29.66,15.0,NNW,17.3,23.0,N/A,Snow,Light Snow,330,2012-10-02 14:00:00
10:44 AM,-9999,-9999,N/A,-9999,15.0,NNW,21.9,28.8,N/A,,Mostly Cloudy,330,2012-10-02 14:44:00
11:00 AM,30.2,24.8,80,29.68,15.0,NW,18.4,25.3,N/A,,Mostly Cloudy,320,2012-10-02 15:00:00
12:00 PM,30.2,24.8,80,29.70,15.0,NW,17.3,23.0,N/A,,Mostly Cloudy,320,2012-10-02 16:00:00
12:49 PM,-9999,-9999,N/A,-9999,15.0,NNW,18.4,25.3,N/A,,Scattered Clouds,330,2012-10-02 16:49:00
1:00 PM,32.0,23.0,69,29.72,15.0,NNW,18.4,25.3,N/A,,Mostly Cloudy,330,2012-10-02 17:00:00
1:05 PM,-9999,-9999,N/A,-9999,15.0,NW,17.3,23.0,N/A,,Mostly Cloudy,320,2012-10-02 17:05:00
2:00 PM,32.0,23.0,69,29.74,15.0,NNW,20.7,27.6,N/A,,Overcast,330,2012-10-02 18:00:00
3:00 PM,32.0,23.0,69,29.76,15.0,NNW,18.4,25.3,N/A,,Overcast,330,2012-10-02 19:00:00
4:00 PM,32.0,23.0,69,29.77,15.0,NW,17.3,23.0,N/A,,Overcast,320,2012-10-02 20:00:00
5:00 PM,32.0,24.8,75,29.79,15.0,WNW,18.4,27.6,N/A,,Mostly Cloudy,300,2012-10-02 21:00:00
6:00 PM,32.0,24.8,75,29.81,15.0,NW,18.4,26.5,N/A,,Mostly Cloudy,320,2012-10-02 22:00:00
7:00 PM,30.2,24.8,80,29.83,15.0,NW,18.4,25.3,N/A,,Mostly Cloudy,320,2012-10-02 23:00:00
8:00 PM,31,25,70,29.87,15,NW,17.3,,,,Mostly Cloudy,310,2012-10-03 00:00:00
8:00 PM,30.2,24.8,80,29.87,15.0,NW,17.3,23.0,N/A,,Mostly Cloudy,310,2012-10-03 00:00:00
9:00 PM,28.4,23.0,80,29.90,15.0,NW,17.3,-,N/A,,Mostly Cloudy,320,2012-10-03 01:00:00
10:00 PM,26.6,23.0,86,29.92,15.0,NW,12.7,-,N/A,,Mostly Cloudy,310,2012-10-03 02:00:00
11:00 PM,26.6,23.0,86,29.93,15.0,WNW,6.9,-,N/A,,Mostly Cloudy,290,2012-10-03 03:00:00